Time;durP1;ratioP1;P1;durP2;ratioP2;P2;SDS_P1;SDS_P2;PMS_P1;PMS_P2;Temp;Humidity;BMP_temperature;BMP_pressure;BME280_temperature;BME280_humidity;BME280_pressure;Samples;Min_cycle;Max_cycle;Signal;HPM_P1;HPM_P2
2022/09/11 00:01:11;;;;;;;5.78;1.60;;;;;;;13.79;100.00;101460.22;4981347;28;20117;-88
2022/09/11 00:03:38;;;;;;;6.20;1.65;;;;;;;13.62;100.00;101462.63;4981550;28;20054;-88
2022/09/11 00:06:09;;;;;;;4.03;1.70;;;;;;;13.64;100.00;101456.38;4981800;28;20057;-88
2022/09/11 00:08:38;;;;;;;5.93;1.92;;;;;;;13.79;100.00;101464.59;4967792;28;20113;-88
2022/09/11 00:11:10;;;;;;;2.72;1.20;;;;;;;14.03;100.00;101468.03;4981841;28;20100;-88
2022/09/11 00:13:39;;;;;;;2.75;1.35;;;;;;;13.74;100.00;101458.66;4981724;28;20050;-87
2022/09/11 00:16:16;;;;;;;3.65;1.40;;;;;;;13.46;100.00;101441.31;4999079;28;20089;-88
2022/09/11 00:18:43;;;;;;;3.42;1.38;;;;;;;13.39;100.00;101445.09;4981336;28;20057;-87
2022/09/11 00:21:10;;;;;;;3.30;1.40;;;;;;;13.57;100.00;101449.66;4981356;28;20061;-88
2022/09/11 00:23:37;;;;;;;4.45;1.60;;;;;;;13.56;100.00;101437.41;4979848;28;20058;-87
2022/09/11 00:26:05;;;;;;;6.47;1.70;;;;;;;13.54;100.00;101433.13;4981906;28;20050;-87
2022/09/11 00:28:32;;;;;;;4.40;1.40;;;;;;;13.56;100.00;101439.19;4979339;28;20051;-88
2022/09/11 00:31:02;;;;;;;4.07;1.40;;;;;;;13.68;100.00;101450.06;4998852;28;20492;-86
2022/09/11 00:33:29;;;;;;;4.80;1.40;;;;;;;13.57;100.00;101443.53;4981334;28;20058;-88
2022/09/11 00:35:59;;;;;;;3.60;1.40;;;;;;;13.42;100.00;101437.97;4998388;28;20046;-87
2022/09/11 00:38:27;;;;;;;4.22;1.52;;;;;;;13.32;100.00;101427.84;4976621;28;20050;-88
2022/09/11 00:40:57;;;;;;;3.40;1.30;;;;;;;13.36;100.00;101448.69;4998507;28;20097;-87
2022/09/11 00:43:25;;;;;;;2.67;1.30;;;;;;;13.35;100.00;101448.75;4972315;28;20057;-87
2022/09/11 00:45:56;;;;;;;3.90;1.27;;;;;;;13.35;100.00;101444.38;4969633;28;20474;-87
2022/09/11 00:48:26;;;;;;;2.05;1.10;;;;;;;13.29;100.00;101428.78;4981561;28;20050;-86
2022/09/11 00:50:55;;;;;;;3.50;1.30;;;;;;;13.29;100.00;101420.88;4981452;28;20108;-87
2022/09/11 00:53:29;;;;;;;2.97;1.33;;;;;;;13.10;100.00;101399.69;4997072;28;20053;-87
2022/09/11 00:56:00;;;;;;;3.60;1.45;;;;;;;13.37;100.00;101425.88;4978415;28;20457;-87
2022/09/11 00:58:31;;;;;;;3.13;1.20;;;;;;;13.40;100.00;101434.53;4971324;28;20616;-87
2022/09/11 01:00:58;;;;;;;2.88;1.23;;;;;;;13.28;100.00;101421.81;4978089;28;20058;-87
2022/09/11 01:03:25;;;;;;;3.78;1.45;;;;;;;13.27;100.00;101425.34;4978294;28;20468;-87
2022/09/11 01:05:53;;;;;;;3.83;1.38;;;;;;;13.25;100.00;101409.63;4977961;28;20058;-87
2022/09/11 01:08:21;;;;;;;3.38;1.35;;;;;;;13.36;100.00;101417.13;4968650;28;20042;-87
2022/09/11 01:11:00;;;;;;;4.07;1.42;;;;;;;13.34;100.00;101416.34;4992847;28;20054;-87
2022/09/11 01:14:09;;;;;;;3.25;1.35;;;;;;;13.36;100.00;101425.03;4999495;28;20051;-87
2022/09/11 01:16:55;;;;;;;5.45;1.40;;;;;;;13.06;100.00;101398.09;4974685;28;20046;-87
2022/09/11 01:19:59;;;;;;;3.20;1.15;;;;;;;13.23;100.00;101426.38;4970025;28;20417;-87
2022/09/11 01:23:04;;;;;;;2.70;1.20;;;;;;;13.16;100.00;101424.91;4977156;28;20628;-87
2022/09/11 01:25:37;;;;;;;4.40;1.42;;;;;;;13.09;100.00;101422.50;4977979;28;20057;-86
2022/09/11 01:28:22;;;;;;;4.22;1.65;;;;;;;12.96;100.00;101425.63;4989669;28;20050;-87
2022/09/11 01:31:01;;;;;;;5.70;1.50;;;;;;;13.02;100.00;101417.53;4964004;28;20146;-87
2022/09/11 01:33:45;;;;;;;3.03;1.35;;;;;;;12.98;100.00;101413.28;4977972;28;20093;-87
2022/09/11 01:36:25;;;;;;;3.20;1.40;;;;;;;13.06;100.00;101411.22;4964170;28;20086;-87
2022/09/11 01:38:56;;;;;;;2.22;1.10;;;;;;;13.04;100.00;101392.88;4989731;28;20054;-87
2022/09/11 01:41:51;;;;;;;3.30;1.52;;;;;;;12.96;100.00;101405.47;4977992;28;20439;-88
2022/09/11 01:44:26;;;;;;;4.25;1.40;;;;;;;12.89;100.00;101411.84;4986585;28;20054;-87
2022/09/11 01:46:53;;;;;;;5.25;1.60;;;;;;;12.67;100.00;101396.00;4969120;28;20042;-87
2022/09/11 01:49:49;;;;;;;3.35;1.50;;;;;;;12.92;100.00;101403.84;4977490;28;20054;-87
2022/09/11 01:52:28;;;;;;;4.20;1.55;;;;;;;12.95;100.00;101398.50;4991885;28;20062;-87
2022/09/11 01:55:20;;;;;;;3.17;1.40;;;;;;;12.82;100.00;101398.09;4994017;28;20054;-87
2022/09/11 01:57:55;;;;;;;4.05;1.27;;;;;;;12.70;100.00;101378.34;4977214;28;20043;-87
2022/09/11 02:00:21;;;;;;;4.75;1.40;;;;;;;12.72;100.00;101396.69;4976633;28;20050;-87
2022/09/11 02:03:02;;;;;;;2.92;1.30;;;;;;;12.79;100.00;101406.06;4966445;28;20054;-87
2022/09/11 02:05:40;;;;;;;4.80;1.70;;;;;;;12.37;100.00;101362.03;4974857;28;20072;-86
2022/09/11 02:08:12;;;;;;;3.00;1.40;;;;;;;12.45;100.00;101394.16;4970104;28;20046;-87
2022/09/11 02:10:52;;;;;;;7.22;1.60;;;;;;;12.45;100.00;101409.06;4988227;28;20074;-86
2022/09/11 02:13:44;;;;;;;3.22;1.40;;;;;;;12.39;100.00;101383.00;4970183;28;20120;-87
2022/09/11 02:16:16;;;;;;;3.13;1.30;;;;;;;12.62;100.00;101411.91;4975617;28;20641;-87
2022/09/11 02:19:02;;;;;;;3.17;1.50;;;;;;;12.45;100.00;101394.16;4973252;28;20084;-86
2022/09/11 02:21:31;;;;;;;6.25;1.90;;;;;;;12.68;100.00;101403.84;4994233;28;20050;-87
2022/09/11 02:23:59;;;;;;;3.50;1.48;;;;;;;12.48;100.00;101398.41;4990593;28;20755;-87
2022/09/11 02:26:30;;;;;;;6.25;1.40;;;;;;;12.33;100.00;101391.94;4977028;28;20049;-87
2022/09/11 02:28:56;;;;;;;3.25;1.45;;;;;;;12.41;100.00;101376.78;4973053;28;20046;-87
2022/09/11 02:31:24;;;;;;;5.97;2.03;;;;;;;12.30;100.00;101369.25;4994005;28;20443;-87
2022/09/11 02:33:51;;;;;;;3.67;1.48;;;;;;;12.19;100.00;101368.78;4976834;28;20099;-86
2022/09/11 02:36:40;;;;;;;4.50;1.55;;;;;;;12.54;100.00;101406.94;4976774;28;20054;-87
2022/09/11 02:39:55;;;;;;;4.55;1.50;;;;;;;12.18;100.00;101402.97;4970297;28;20051;-87
2022/09/11 02:42:37;;;;;;;3.92;1.50;;;;;;;12.02;100.00;101400.84;4941204;28;20046;-87
2022/09/11 02:45:34;;;;;;;3.35;1.50;;;;;;;12.31;100.00;101402.50;4969012;28;20050;-87
2022/09/11 02:48:17;;;;;;;5.70;1.25;;;;;;;12.31;100.00;101397.25;4966663;28;20042;-87
2022/09/11 02:50:47;;;;;;;2.33;1.30;;;;;;;12.19;100.00;101405.53;4993499;28;20073;-87
2022/09/11 02:53:30;;;;;;;4.72;1.65;;;;;;;11.83;100.00;101397.94;4976228;28;20056;-87
2022/09/11 02:56:12;;;;;;;4.90;1.92;;;;;;;11.94;100.00;101395.84;4976622;28;20104;-87
2022/09/11 02:58:55;;;;;;;6.35;1.95;;;;;;;11.76;100.00;101384.16;4968045;28;20074;-86
2022/09/11 03:01:22;;;;;;;5.20;1.70;;;;;;;12.05;100.00;101394.66;4987106;28;20097;-86
2022/09/11 03:03:50;;;;;;;3.85;1.40;;;;;;;11.69;100.00;101389.66;4981946;28;20050;-87
2022/09/11 03:06:22;;;;;;;5.13;1.60;;;;;;;11.49;100.00;101364.91;4971202;28;20051;-86
2022/09/11 03:08:50;;;;;;;6.10;1.73;;;;;;;11.66;100.00;101363.50;4958379;28;20090;-86
2022/09/11 03:11:18;;;;;;;3.88;1.60;;;;;;;11.62;100.00;101393.38;4969870;28;20070;-86
2022/09/11 03:13:45;;;;;;;3.30;1.45;;;;;;;11.83;100.00;101387.44;4962382;28;20054;-86
2022/09/11 03:16:12;;;;;;;3.03;1.50;;;;;;;11.80;100.00;101390.16;4976179;28;20480;-87
2022/09/11 03:18:39;;;;;;;6.22;1.67;;;;;;;11.82;100.00;101382.25;4969254;28;20046;-86
2022/09/11 03:21:06;;;;;;;3.97;1.67;;;;;;;11.44;100.00;101376.44;4975973;28;20049;-86
2022/09/11 03:23:32;;;;;;;3.85;1.42;;;;;;;11.59;100.00;101378.59;4975918;28;20109;-87
2022/09/11 03:25:59;;;;;;;4.80;1.50;;;;;;;11.38;100.00;101361.75;4993627;28;20508;-87
2022/09/11 03:28:26;;;;;;;5.55;1.75;;;;;;;11.20;100.00;101363.19;4975277;28;20085;-87
2022/09/11 03:30:53;;;;;;;3.40;1.52;;;;;;;11.33;100.00;101361.91;4976105;28;20120;-86
2022/09/11 03:33:20;;;;;;;4.70;1.30;;;;;;;11.29;100.00;101334.06;4970229;28;20047;-87
2022/09/11 03:35:46;;;;;;;3.65;1.48;;;;;;;11.73;100.00;101360.63;4988386;28;20081;-87
2022/09/11 03:38:14;;;;;;;3.05;1.30;;;;;;;11.81;100.00;101370.03;4975381;28;20104;-86
2022/09/11 03:40:43;;;;;;;6.60;2.05;;;;;;;11.69;100.00;101360.81;4975176;28;20105;-87
2022/09/11 03:43:11;;;;;;;4.90;1.48;;;;;;;11.44;100.00;101368.56;4958428;28;20062;-87
2022/09/11 03:45:38;;;;;;;3.03;1.30;;;;;;;11.46;100.00;101356.28;4968377;28;20776;-87
2022/09/11 03:48:05;;;;;;;2.58;1.30;;;;;;;11.39;100.00;101366.09;4972481;28;20057;-87
2022/09/11 03:50:32;;;;;;;3.70;1.63;;;;;;;11.30;100.00;101348.03;4975505;28;20646;-87
2022/09/11 03:52:59;;;;;;;4.75;1.38;;;;;;;11.38;100.00;101346.91;4975729;28;20057;-87
2022/09/11 03:55:27;;;;;;;3.45;1.50;;;;;;;11.52;100.00;101351.69;4993469;28;20092;-87
2022/09/11 03:57:54;;;;;;;3.45;1.50;;;;;;;11.60;100.00;101351.47;4966635;28;20074;-85
2022/09/11 04:00:21;;;;;;;3.75;1.58;;;;;;;11.23;100.00;101315.06;4992724;28;20050;-87
2022/09/11 04:02:48;;;;;;;4.03;1.50;;;;;;;11.46;100.00;101348.44;4975656;28;20467;-87
2022/09/11 04:05:15;;;;;;;4.13;1.48;;;;;;;11.62;100.00;101347.03;4975654;28;20058;-87
2022/09/11 04:07:42;;;;;;;3.70;1.40;;;;;;;11.69;100.00;101340.66;4966328;28;20050;-87
2022/09/11 04:10:09;;;;;;;4.15;1.42;;;;;;;11.58;100.00;101329.69;4973509;28;20054;-87
2022/09/11 04:12:36;;;;;;;2.58;1.30;;;;;;;11.36;100.00;101353.09;4967927;28;20050;-86
2022/09/11 04:15:03;;;;;;;3.90;1.48;;;;;;;10.74;100.00;101312.13;4972340;28;20054;-87
2022/09/11 04:17:30;;;;;;;3.17;1.38;;;;;;;10.53;100.00;101293.50;4974412;28;20571;-86
2022/09/11 04:19:57;;;;;;;4.45;1.50;;;;;;;10.78;100.00;101282.31;4974758;28;20054;-87
2022/09/11 04:22:25;;;;;;;2.47;1.30;;;;;;;10.99;100.00;101304.41;4975817;28;20050;-86
2022/09/11 04:24:52;;;;;;;6.30;1.50;;;;;;;10.80;100.00;101286.63;4975883;28;20132;-87
2022/09/11 04:27:19;;;;;;;3.45;1.55;;;;;;;10.78;100.00;101306.78;4971392;28;20059;-86
2022/09/11 04:29:46;;;;;;;3.33;1.83;;;;;;;10.49;100.00;101270.94;4986657;28;20043;-87
2022/09/11 04:32:13;;;;;;;4.05;1.85;;;;;;;10.75;100.00;101324.34;4982458;28;20105;-87
2022/09/11 04:34:40;;;;;;;6.93;1.80;;;;;;;10.44;100.00;101294.63;4968985;28;20101;-86
2022/09/11 04:37:06;;;;;;;6.32;1.85;;;;;;;10.32;100.00;101315.91;4975415;28;20050;-86
2022/09/11 04:39:34;;;;;;;3.42;1.52;;;;;;;10.67;100.00;101311.44;4990568;28;20548;-87
2022/09/11 04:42:03;;;;;;;3.78;1.35;;;;;;;11.02;100.00;101312.19;4969423;28;20050;-86
2022/09/11 04:44:31;;;;;;;3.72;1.50;;;;;;;10.90;100.00;101302.91;4978739;28;20089;-86
2022/09/11 04:46:58;;;;;;;4.03;1.50;;;;;;;10.64;100.00;101240.81;4977308;28;20046;-86
2022/09/11 04:49:25;;;;;;;2.75;1.27;;;;;;;11.14;100.00;101324.91;4991479;28;20100;-86
2022/09/11 04:51:52;;;;;;;2.40;1.35;;;;;;;10.93;100.00;101304.59;4973741;28;20050;-87
2022/09/11 04:54:22;;;;;;;3.90;1.60;;;;;;;10.84;100.00;101300.50;4978791;28;20046;-87
2022/09/11 04:56:49;;;;;;;3.95;1.45;;;;;;;11.09;100.00;101321.56;4972473;28;20387;-87
2022/09/11 04:59:21;;;;;;;2.45;1.30;;;;;;;11.17;100.00;101318.72;4978205;28;20477;-87
2022/09/11 05:01:48;;;;;;;3.03;1.45;;;;;;;11.15;100.00;101305.66;4978693;28;20089;-86
2022/09/11 05:04:17;;;;;;;4.00;1.45;;;;;;;11.15;100.00;101316.13;4966472;28;20051;-86
2022/09/11 05:06:49;;;;;;;2.33;1.27;;;;;;;11.12;100.00;101311.00;4971913;28;20489;-87
2022/09/11 05:09:17;;;;;;;3.33;1.40;;;;;;;10.89;100.00;101271.53;4959197;28;20062;-87
2022/09/11 05:11:43;;;;;;;5.07;1.65;;;;;;;10.59;100.00;101264.53;4990138;28;20047;-86
2022/09/11 05:14:11;;;;;;;2.47;1.30;;;;;;;10.81;100.00;101272.63;4985949;28;20417;-87
2022/09/11 05:16:38;;;;;;;4.45;1.40;;;;;;;10.98;100.00;101308.78;4995110;28;20096;-86
2022/09/11 05:19:05;;;;;;;2.75;1.20;;;;;;;10.95;100.00;101281.84;4975607;28;20465;-86
2022/09/11 05:21:32;;;;;;;5.30;1.40;;;;;;;10.85;100.00;101310.06;4978277;28;20061;-86
2022/09/11 05:24:00;;;;;;;2.83;1.30;;;;;;;10.64;100.00;101241.69;4978238;28;20488;-86
2022/09/11 05:26:30;;;;;;;2.47;1.35;;;;;;;11.14;100.00;101287.38;4978440;28;20061;-86
2022/09/11 05:28:59;;;;;;;2.60;1.20;;;;;;;11.19;100.00;101301.16;4960486;28;20050;-86
2022/09/11 05:31:27;;;;;;;3.10;1.25;;;;;;;11.19;100.00;101282.81;4982990;28;20420;-86
2022/09/11 05:33:55;;;;;;;2.53;1.20;;;;;;;10.92;100.00;101268.81;4995069;28;20065;-86
2022/09/11 05:36:22;;;;;;;3.70;1.45;;;;;;;10.86;100.00;101255.91;4965349;28;20050;-86
2022/09/11 05:38:49;;;;;;;2.60;1.30;;;;;;;10.90;100.00;101279.34;4973876;28;20097;-86
2022/09/11 05:41:16;;;;;;;6.03;1.52;;;;;;;11.21;100.00;101260.06;4977946;28;20057;-85
2022/09/11 05:43:43;;;;;;;3.15;1.40;;;;;;;11.30;100.00;101317.44;4967841;28;20401;-87
2022/09/11 05:46:12;;;;;;;3.22;1.35;;;;;;;11.02;100.00;101249.28;4972185;28;20050;-86
2022/09/11 05:48:39;;;;;;;4.85;1.38;;;;;;;11.55;100.00;101312.25;4984391;28;20107;-87
2022/09/11 05:51:10;;;;;;;3.05;1.30;;;;;;;11.35;100.00;101319.88;4972346;28;20054;-86
2022/09/11 05:53:37;;;;;;;2.42;1.23;;;;;;;11.50;100.00;101300.22;4967107;28;20046;-86
2022/09/11 05:56:15;;;;;;;4.50;1.50;;;;;;;11.71;100.00;101310.00;4994113;28;20055;-86
2022/09/11 05:58:45;;;;;;;5.18;1.38;;;;;;;11.88;100.00;101301.56;4968814;28;20137;-86
2022/09/11 06:01:14;;;;;;;4.15;1.50;;;;;;;11.57;100.00;101237.00;4963946;28;20066;-87
2022/09/11 06:03:41;;;;;;;3.65;1.40;;;;;;;12.15;100.00;101297.16;4992295;28;20046;-86
2022/09/11 06:06:10;;;;;;;2.90;1.38;;;;;;;12.04;100.00;101270.44;4977913;28;20052;-87
2022/09/11 06:08:41;;;;;;;2.90;1.20;;;;;;;12.31;100.00;101310.59;4985253;28;20077;-87
2022/09/11 06:11:12;;;;;;;3.65;1.40;;;;;;;12.10;100.00;101272.81;4977642;28;20065;-86
2022/09/11 06:13:41;;;;;;;2.92;1.20;;;;;;;12.43;100.00;101301.44;4994211;28;20046;-86
2022/09/11 06:16:18;;;;;;;5.43;1.50;;;;;;;12.21;100.00;101263.72;4982994;28;20054;-86
2022/09/11 06:18:47;;;;;;;3.28;1.48;;;;;;;12.32;100.00;101243.16;4974099;28;20090;-86
2022/09/11 06:21:18;;;;;;;2.97;1.20;;;;;;;12.60;100.00;101273.66;4994874;28;20054;-87
2022/09/11 06:23:47;;;;;;;3.72;1.40;;;;;;;12.50;100.00;101244.25;4963569;28;20051;-87
2022/09/11 06:26:17;;;;;;;2.72;1.25;;;;;;;12.75;100.00;101298.50;4958786;28;20059;-86
2022/09/11 06:28:43;;;;;;;3.53;1.60;;;;;;;12.44;100.00;101237.47;4976993;28;20412;-86
2022/09/11 06:31:15;;;;;;;3.88;1.52;;;;;;;12.50;100.00;101268.78;4977508;28;20101;-86
2022/09/11 06:33:42;;;;;;;6.38;1.65;;;;;;;12.67;100.00;101294.38;4977870;28;20050;-86
2022/09/11 06:36:16;;;;;;;3.10;1.40;;;;;;;12.33;100.00;101229.13;4977100;28;20078;-86
2022/09/11 06:38:43;;;;;;;3.13;1.40;;;;;;;12.34;100.00;101222.97;4986182;28;20050;-87
2022/09/11 06:41:14;;;;;;;4.18;1.33;;;;;;;12.46;100.00;101222.50;4976188;28;20493;-86
2022/09/11 06:43:42;;;;;;;3.85;1.60;;;;;;;12.75;100.00;101257.34;4985093;28;20054;-87
2022/09/11 06:46:12;;;;;;;6.20;1.67;;;;;;;12.71;100.00;101237.31;4972848;28;20129;-88
2022/09/11 06:48:40;;;;;;;2.92;1.30;;;;;;;12.72;100.00;101239.06;4968848;28;20408;-87
2022/09/11 06:51:10;;;;;;;3.15;1.10;;;;;;;12.91;100.00;101239.19;4988088;28;20105;-88
2022/09/11 06:53:39;;;;;;;3.05;1.30;;;;;;;13.10;100.00;101258.59;4977138;28;20050;-88
2022/09/11 06:56:11;;;;;;;5.43;1.50;;;;;;;12.77;100.00;101234.47;4976449;28;20050;-88
2022/09/11 06:58:42;;;;;;;6.80;1.55;;;;;;;12.93;100.00;101249.66;4970350;28;20057;-88
2022/09/11 07:01:12;;;;;;;4.47;1.70;;;;;;;12.76;100.00;101260.81;4976318;28;20046;-88
2022/09/11 07:03:52;;;;;;;4.40;1.80;;;;;;;13.00;100.00;101290.56;4969498;28;20133;-87
2022/09/11 07:06:27;;;;;;;3.22;1.27;;;;;;;12.99;100.00;101241.53;4970083;28;20054;-88
2022/09/11 07:09:00;;;;;;;5.88;2.45;;;;;;;13.53;100.00;101234.97;4966230;28;20082;-88
2022/09/11 07:11:31;;;;;;;4.63;1.90;;;;;;;13.73;100.00;101230.63;4966881;28;20054;-87
2022/09/11 07:14:04;;;;;;;3.78;1.38;;;;;;;14.64;100.00;101255.59;4976256;28;20545;-87
2022/09/11 07:16:31;;;;;;;;;;;;;;;15.53;100.00;101280.34;4988906;28;20125;-87
2022/09/11 07:18:58;;;;;;;4.20;1.50;;;;;;;15.40;100.00;101221.19;4975738;28;19929;-87
2022/09/11 07:21:26;;;;;;;4.28;1.40;;;;;;;16.08;100.00;101263.50;4966929;28;20050;-88
2022/09/11 07:23:56;;;;;;;5.32;1.60;;;;;;;16.38;100.00;101223.16;4973038;28;20054;-88
2022/09/11 07:26:26;;;;;;;2.65;1.30;;;;;;;16.84;100.00;101247.13;4971412;28;20042;-88
2022/09/11 07:28:54;;;;;;;5.10;1.40;;;;;;;17.08;100.00;101250.16;4973608;28;20104;-87
2022/09/11 07:31:28;;;;;;;7.43;1.60;;;;;;;16.88;100.00;101240.72;4992787;28;20520;-87
2022/09/11 07:33:55;;;;;;;3.97;1.30;;;;;;;16.63;100.00;101239.41;4973513;28;20433;-87
2022/09/11 07:36:28;;;;;;;2.90;1.17;;;;;;;16.56;100.00;101224.81;4991002;28;20046;-87
2022/09/11 07:38:56;;;;;;;4.97;1.55;;;;;;;16.38;100.00;101253.09;4969833;28;20042;-88
2022/09/11 07:41:25;;;;;;;3.60;1.20;;;;;;;16.80;100.00;101256.13;4976225;28;20050;-88
2022/09/11 07:43:57;;;;;;;6.32;1.42;;;;;;;17.31;100.00;101270.00;4975906;28;20054;-88
2022/09/11 07:46:24;;;;;;;4.20;1.42;;;;;;;17.71;100.00;101246.50;4991797;28;20061;-88
2022/09/11 07:48:53;;;;;;;3.28;1.33;;;;;;;17.96;100.00;101248.56;4965027;28;20109;-88
2022/09/11 07:51:20;;;;;;;6.05;1.40;;;;;;;17.49;100.00;101223.09;4964931;28;20053;-88
2022/09/11 07:53:50;;;;;;;6.68;1.33;;;;;;;18.00;100.00;101265.97;4976389;28;20062;-88
2022/09/11 07:56:22;;;;;;;4.00;1.40;;;;;;;17.99;100.00;101253.69;4986042;28;20059;-84
2022/09/11 07:58:51;;;;;;;3.43;1.20;;;;;;;17.93;100.00;101262.00;4984513;28;20050;-86
2022/09/11 08:01:20;;;;;;;5.28;1.50;;;;;;;18.14;100.00;101254.53;4970692;28;20050;-87
2022/09/11 08:03:48;;;;;;;5.28;1.27;;;;;;;18.10;100.00;101261.00;4970320;28;20065;-86
2022/09/11 08:06:18;;;;;;;3.95;1.38;;;;;;;18.01;100.00;101251.78;4988993;28;20396;-86
2022/09/11 08:08:50;;;;;;;;;;;;;;;17.89;100.00;101278.19;4981174;28;20050;-89
2022/09/11 08:11:17;;;;;;;4.97;1.48;;;;;;;17.32;100.00;101247.91;4983817;28;19921;-90
2022/09/11 08:13:49;;;;;;;2.40;1.10;;;;;;;17.37;100.00;101255.56;4986933;28;20057;-91
2022/09/11 08:16:18;;;;;;;9.15;2.80;;;;;;;17.03;100.00;101246.91;4981389;28;20055;-89
2022/09/11 08:18:46;;;;;;;8.05;2.92;;;;;;;16.13;100.00;101258.84;4983915;28;20054;-91
2022/09/11 08:21:14;;;;;;;7.50;2.78;;;;;;;15.72;100.00;101211.63;4981144;28;20092;-90
2022/09/11 08:23:43;;;;;;;8.85;3.13;;;;;;;16.10;100.00;101259.84;4979000;28;20105;-90
2022/09/11 08:26:15;;;;;;;9.57;3.60;;;;;;;14.97;100.00;101160.88;4979951;28;20456;-90
2022/09/11 08:28:43;;;;;;;8.90;3.55;;;;;;;15.34;100.00;101240.81;4979507;28;20042;-90
2022/09/11 08:31:12;;;;;;;9.02;2.72;;;;;;;15.68;100.00;101253.16;4997253;28;20481;-90
2022/09/11 08:33:39;;;;;;;6.53;2.30;;;;;;;15.84;100.00;101204.91;4973095;28;20065;-90
2022/09/11 08:36:09;;;;;;;8.43;3.22;;;;;;;15.23;100.00;101177.16;4968222;28;20651;-91
2022/09/11 08:38:37;;;;;;;7.15;2.67;;;;;;;15.73;100.00;101221.25;4980371;28;20054;-90
2022/09/11 08:41:31;;;;;;;10.63;4.38;;;;;;;15.41;100.00;101233.47;4981424;28;20054;-90
2022/09/11 08:44:10;;;;;;;7.97;2.97;;;;;;;15.53;100.00;101243.41;4999899;28;20054;-90
2022/09/11 08:46:45;;;;;;;6.65;2.55;;;;;;;15.40;100.00;101221.19;5001733;28;20113;-89
2022/09/11 08:49:27;;;;;;;8.65;3.30;;;;;;;15.07;100.00;101209.59;4974733;28;20043;-89
2022/09/11 08:52:01;;;;;;;9.63;2.95;;;;;;;15.47;100.00;101215.50;4964101;28;20053;-90
2022/09/11 08:54:35;;;;;;;7.07;2.88;;;;;;;15.49;100.00;101239.19;4979837;28;20051;-88
2022/09/11 08:57:15;;;;;;;6.45;2.25;;;;;;;15.93;100.00;101247.50;4966171;28;20054;-87
2022/09/11 09:00:16;;;;;;;7.03;2.40;;;;;;;15.83;100.00;101243.66;4976604;28;20042;-88
2022/09/11 09:03:19;;;;;;;6.22;2.00;;;;;;;16.19;100.00;101242.66;4977786;28;20055;-87
2022/09/11 09:05:54;;;;;;;6.57;2.42;;;;;;;16.19;100.00;101234.72;4978932;28;20113;-87
2022/09/11 09:08:48;;;;;;;6.53;2.33;;;;;;;16.33;100.00;101232.19;4973108;28;20050;-86
2022/09/11 09:12:11;;;;;;;5.70;1.98;;;;;;;16.40;100.00;101227.44;4990470;28;20042;-87
2022/09/11 09:15:01;;;;;;;6.28;1.90;;;;;;;16.33;100.00;101195.19;4956078;28;20712;-87
2022/09/11 09:17:42;;;;;;;6.85;2.40;;;;;;;16.42;100.00;101224.72;4972779;28;20046;-85
2022/09/11 09:20:15;;;;;;;7.00;2.58;;;;;;;15.82;100.00;101154.81;4966127;28;20051;-86
2022/09/11 09:22:42;;;;;;;4.78;1.85;;;;;;;16.82;100.00;101228.66;4964658;28;20047;-86
2022/09/11 09:25:11;;;;;;;4.93;1.90;;;;;;;16.66;100.00;101198.72;4968640;28;20054;-86
2022/09/11 09:27:46;;;;;;;4.80;1.92;;;;;;;16.23;100.00;101203.72;4976995;28;20054;-86
2022/09/11 09:30:20;;;;;;;5.68;2.40;;;;;;;16.65;100.00;101219.00;4977400;28;20444;-85
2022/09/11 09:32:54;;;;;;;6.63;1.90;;;;;;;16.82;100.00;101223.38;4975460;28;20109;-85
2022/09/11 09:35:25;;;;;;;3.83;1.50;;;;;;;17.21;100.00;101222.06;4990000;28;20056;-86
2022/09/11 09:37:53;;;;;;;3.45;1.38;;;;;;;17.39;100.00;101187.53;4984730;28;20058;-86
2022/09/11 09:40:21;;;;;;;7.90;1.83;;;;;;;17.13;100.00;101191.72;4992485;28;20050;-86
2022/09/11 09:43:32;;;;;;;5.32;1.65;;;;;;;17.35;100.00;101217.75;4971777;28;20062;-85
2022/09/11 09:46:42;;;;;;;3.85;1.50;;;;;;;17.58;100.00;101211.09;4989661;28;20073;-86
2022/09/11 09:49:22;;;;;;;7.43;2.05;;;;;;;17.38;100.00;101181.38;4976573;28;20043;-86
2022/09/11 09:51:50;;;;;;;3.45;1.60;;;;;;;17.78;100.00;101168.41;4973528;28;20109;-84
2022/09/11 09:54:19;;;;;;;3.90;1.30;;;;;;;17.84;100.00;101141.53;4973095;28;20128;-87
2022/09/11 09:57:01;;;;;;;4.85;1.30;;;;;;;17.96;100.00;101144.41;4969426;28;20097;-86
2022/09/11 09:59:46;;;;;;;4.05;1.58;;;;;;;18.02;100.00;101154.59;4985842;28;20050;-87
2022/09/11 10:02:49;;;;;;;5.43;1.77;;;;;;;18.10;100.00;101139.09;4975633;28;20046;-87
2022/09/11 10:05:39;;;;;;;7.28;1.63;;;;;;;17.95;100.00;101158.59;4983609;28;20421;-88
2022/09/11 10:08:33;;;;;;;3.50;1.10;;;;;;;18.32;100.00;101161.59;4986546;28;20050;-88
2022/09/11 10:11:06;;;;;;;;;;;;;;;18.44;100.00;101182.00;4975003;28;20054;-86
2022/09/11 10:13:36;;;;;;;9.02;1.65;;;;;;;18.33;100.00;101144.75;4994082;28;19921;-87
2022/09/11 10:16:18;;;;;;;9.13;2.15;;;;;;;18.64;100.00;101156.84;4976692;28;20042;-86
2022/09/11 10:18:46;;;;;;;3.53;1.20;;;;;;;18.66;100.00;101120.50;4975332;28;20046;-86
2022/09/11 10:21:14;;;;;;;4.90;1.20;;;;;;;19.24;100.00;101175.97;4965226;28;20057;-87
2022/09/11 10:23:49;;;;;;;4.07;1.50;;;;;;;18.80;100.00;101130.19;4969762;28;20524;-86
2022/09/11 10:26:32;;;;;;;4.55;1.52;;;;;;;18.72;100.00;101132.50;4969474;28;20571;-86
2022/09/11 10:29:12;;;;;;;5.38;1.65;;;;;;;18.45;100.00;101172.25;4971655;28;20057;-87
2022/09/11 10:31:46;;;;;;;6.47;1.65;;;;;;;18.45;100.00;101138.66;4976510;28;20074;-85
2022/09/11 10:34:16;;;;;;;4.18;1.45;;;;;;;17.78;100.00;101099.53;4968238;28;20058;-86
2022/09/11 10:36:55;;;;;;;5.05;1.38;;;;;;;18.71;100.00;101165.28;4983210;28;20054;-86
2022/09/11 10:39:24;;;;;;;6.05;1.48;;;;;;;18.72;100.00;101098.03;4991522;28;20053;-86
2022/09/11 10:41:58;;;;;;;7.53;1.70;;;;;;;18.84;100.00;101163.56;4976938;28;20518;-86
2022/09/11 10:44:27;;;;;;;6.65;1.60;;;;;;;18.23;100.00;101133.03;4980957;28;20073;-87
2022/09/11 10:47:26;;;;;;;5.78;1.60;;;;;;;18.46;100.00;101156.25;4970887;28;20409;-86
2022/09/11 10:50:28;;;;;;;5.20;1.48;;;;;;;19.16;100.00;101136.69;4976049;28;20046;-87
2022/09/11 10:53:01;;;;;;;6.93;1.90;;;;;;;19.55;100.00;101137.59;4893828;29;20409;-87
2022/09/11 10:55:36;;;;;;;4.60;1.30;;;;;;;19.14;100.00;101086.38;4972548;28;20077;-87
2022/09/11 10:58:17;;;;;;;5.50;1.38;;;;;;;19.08;100.00;101081.47;4968814;28;20058;-87
2022/09/11 11:00:44;;;;;;;3.97;1.38;;;;;;;18.60;100.00;101073.16;4977223;28;20054;-89
2022/09/11 11:03:25;;;;;;;4.88;1.20;;;;;;;18.82;100.00;101106.25;4977507;28;20050;-88
2022/09/11 11:06:22;;;;;;;7.78;1.67;;;;;;;18.95;100.00;101120.41;4978062;28;20376;-87
2022/09/11 11:09:18;;;;;;;3.97;1.40;;;;;;;19.35;100.00;101123.88;4989471;28;20489;-89
2022/09/11 11:12:08;;;;;;;6.90;1.92;;;;;;;18.39;100.00;101080.72;4968549;28;20125;-89
2022/09/11 11:15:29;;;;;;;5.47;1.88;;;;;;;18.58;100.00;101122.81;4976957;28;20456;-85
2022/09/11 11:18:20;;;;;;;5.70;2.00;;;;;;;18.32;100.00;101116.53;4918799;29;20067;-89
2022/09/11 11:21:06;;;;;;;5.65;1.83;;;;;;;18.66;100.00;101114.34;4922747;29;20446;-88
2022/09/11 11:23:50;;;;;;;8.63;1.98;;;;;;;18.46;100.00;101050.19;4957247;28;20058;-91
2022/09/11 11:26:44;;;;;;;5.80;1.75;;;;;;;18.87;100.00;101053.72;4965079;28;20058;-89
2022/09/11 11:29:29;;;;;;;6.50;1.63;;;;;;;19.11;100.00;101070.66;4970949;28;20050;-87
2022/09/11 11:32:30;;;;;;;9.82;1.98;;;;;;;19.18;100.00;101079.03;4972997;28;20070;-89
2022/09/11 11:35:16;;;;;;;7.78;1.98;;;;;;;19.06;100.00;101098.47;4974381;28;20073;-88
2022/09/11 11:37:46;;;;;;;6.18;1.83;;;;;;;18.21;100.00;101016.50;4969679;28;20105;-88
2022/09/11 11:40:22;;;;;;;4.53;1.35;;;;;;;19.21;100.00;101093.91;4988913;28;20405;-89
2022/09/11 11:43:08;;;;;;;6.20;1.40;;;;;;;18.69;100.00;101063.75;4971184;28;20053;-87
2022/09/11 11:46:01;;;;;;;6.78;1.83;;;;;;;19.83;100.00;101080.75;4968352;28;20051;-89
2022/09/11 11:48:43;;;;;;;6.82;1.70;;;;;;;19.51;100.00;101073.22;4969827;28;20050;-88